sensor_id;sensor_type;location;lat;lon;timestamp;P1;durP1;ratioP1;P2;durP2;ratioP2
59555;SDS011;45374;52.746;6.304;2023-02-28T00:00:27;8.43;;;4.15;;
59555;SDS011;45374;52.746;6.304;2023-02-28T00:02:52;7.15;;;3.95;;
59555;SDS011;45374;52.746;6.304;2023-02-28T00:05:19;8.13;;;3.78;;
59555;SDS011;45374;52.746;6.304;2023-02-28T00:07:46;9.20;;;4.13;;
59555;SDS011;45374;52.746;6.304;2023-02-28T00:10:13;9.20;;;4.20;;
59555;SDS011;45374;52.746;6.304;2023-02-28T00:12:40;9.80;;;3.97;;
59555;SDS011;45374;52.746;6.304;2023-02-28T00:15:10;7.70;;;3.70;;
59555;SDS011;45374;52.746;6.304;2023-02-28T00:17:36;10.95;;;3.70;;
59555;SDS011;45374;52.746;6.304;2023-02-28T00:20:02;7.78;;;3.85;;
59555;SDS011;45374;52.746;6.304;2023-02-28T00:22:31;10.45;;;3.80;;
59555;SDS011;45374;52.746;6.304;2023-02-28T00:24:56;8.15;;;3.90;;
59555;SDS011;45374;52.746;6.304;2023-02-28T00:27:22;8.35;;;3.90;;
59555;SDS011;45374;52.746;6.304;2023-02-28T00:29:48;9.57;;;4.00;;
59555;SDS011;45374;52.746;6.304;2023-02-28T00:32:13;9.77;;;3.78;;
59555;SDS011;45374;52.746;6.304;2023-02-28T00:34:39;7.45;;;3.65;;
59555;SDS011;45374;52.746;6.304;2023-02-28T00:37:05;5.70;;;3.58;;
59555;SDS011;45374;52.746;6.304;2023-02-28T00:39:35;13.25;;;4.68;;
59555;SDS011;45374;52.746;6.304;2023-02-28T00:42:02;11.70;;;4.20;;
59555;SDS011;45374;52.746;6.304;2023-02-28T00:44:29;10.23;;;4.07;;
59555;SDS011;45374;52.746;6.304;2023-02-28T00:46:55;12.05;;;4.32;;
59555;SDS011;45374;52.746;6.304;2023-02-28T00:49:21;10.95;;;4.00;;
59555;SDS011;45374;52.746;6.304;2023-02-28T00:51:47;9.88;;;4.10;;
59555;SDS011;45374;52.746;6.304;2023-02-28T00:54:13;9.52;;;3.95;;
59555;SDS011;45374;52.746;6.304;2023-02-28T00:56:39;11.32;;;3.97;;
59555;SDS011;45374;52.746;6.304;2023-02-28T00:59:05;13.45;;;4.35;;
59555;SDS011;45374;52.746;6.304;2023-02-28T01:01:31;8.32;;;3.90;;
59555;SDS011;45374;52.746;6.304;2023-02-28T01:03:56;10.52;;;3.75;;
59555;SDS011;45374;52.746;6.304;2023-02-28T01:06:22;10.60;;;4.20;;
59555;SDS011;45374;52.746;6.304;2023-02-28T01:08:48;9.38;;;3.95;;
59555;SDS011;45374;52.746;6.304;2023-02-28T01:11:14;7.85;;;4.10;;
59555;SDS011;45374;52.746;6.304;2023-02-28T01:13:41;8.30;;;4.20;;
59555;SDS011;45374;52.746;6.304;2023-02-28T01:16:07;9.70;;;3.80;;
59555;SDS011;45374;52.746;6.304;2023-02-28T01:18:33;9.15;;;3.90;;
59555;SDS011;45374;52.746;6.304;2023-02-28T01:21:03;10.82;;;4.18;;
59555;SDS011;45374;52.746;6.304;2023-02-28T01:23:35;10.40;;;4.75;;
59555;SDS011;45374;52.746;6.304;2023-02-28T01:26:08;7.82;;;3.67;;
59555;SDS011;45374;52.746;6.304;2023-02-28T01:28:36;11.18;;;4.70;;
59555;SDS011;45374;52.746;6.304;2023-02-28T01:31:01;10.38;;;4.15;;
59555;SDS011;45374;52.746;6.304;2023-02-28T01:33:28;12.27;;;4.13;;
59555;SDS011;45374;52.746;6.304;2023-02-28T01:38:26;8.57;;;4.38;;
59555;SDS011;45374;52.746;6.304;2023-02-28T01:40:52;9.77;;;4.55;;
59555;SDS011;45374;52.746;6.304;2023-02-28T01:45:52;7.65;;;4.25;;
59555;SDS011;45374;52.746;6.304;2023-02-28T01:48:19;10.02;;;4.72;;
59555;SDS011;45374;52.746;6.304;2023-02-28T01:50:59;8.35;;;4.32;;
59555;SDS011;45374;52.746;6.304;2023-02-28T01:53:31;8.10;;;4.78;;
59555;SDS011;45374;52.746;6.304;2023-02-28T01:55:59;8.25;;;4.25;;
59555;SDS011;45374;52.746;6.304;2023-02-28T01:58:28;11.20;;;4.90;;
59555;SDS011;45374;52.746;6.304;2023-02-28T02:00:54;7.25;;;4.90;;
59555;SDS011;45374;52.746;6.304;2023-02-28T02:03:20;10.80;;;5.13;;
59555;SDS011;45374;52.746;6.304;2023-02-28T02:05:46;9.93;;;4.55;;
59555;SDS011;45374;52.746;6.304;2023-02-28T02:08:19;14.70;;;5.15;;
59555;SDS011;45374;52.746;6.304;2023-02-28T02:10:48;9.45;;;5.38;;
59555;SDS011;45374;52.746;6.304;2023-02-28T02:18:37;7.97;;;4.63;;
59555;SDS011;45374;52.746;6.304;2023-02-28T02:24:12;8.27;;;4.75;;
59555;SDS011;45374;52.746;6.304;2023-02-28T02:29:57;11.88;;;4.90;;
59555;SDS011;45374;52.746;6.304;2023-02-28T02:32:31;8.52;;;4.82;;
59555;SDS011;45374;52.746;6.304;2023-02-28T02:38:09;8.48;;;4.20;;
59555;SDS011;45374;52.746;6.304;2023-02-28T02:40:50;9.40;;;4.65;;
59555;SDS011;45374;52.746;6.304;2023-02-28T02:43:29;9.63;;;4.13;;
59555;SDS011;45374;52.746;6.304;2023-02-28T02:46:10;7.57;;;3.97;;
59555;SDS011;45374;52.746;6.304;2023-02-28T02:48:42;10.85;;;4.70;;
59555;SDS011;45374;52.746;6.304;2023-02-28T02:51:11;8.45;;;4.43;;
59555;SDS011;45374;52.746;6.304;2023-02-28T02:53:42;11.02;;;5.28;;
59555;SDS011;45374;52.746;6.304;2023-02-28T02:56:24;10.88;;;5.47;;
59555;SDS011;45374;52.746;6.304;2023-02-28T02:58:53;10.20;;;5.63;;
59555;SDS011;45374;52.746;6.304;2023-02-28T03:01:22;12.52;;;5.43;;
59555;SDS011;45374;52.746;6.304;2023-02-28T03:03:56;13.10;;;6.78;;
59555;SDS011;45374;52.746;6.304;2023-02-28T03:06:24;18.67;;;7.40;;
59555;SDS011;45374;52.746;6.304;2023-02-28T03:08:51;14.80;;;7.63;;
59555;SDS011;45374;52.746;6.304;2023-02-28T03:11:16;14.55;;;7.63;;
59555;SDS011;45374;52.746;6.304;2023-02-28T03:13:57;16.73;;;7.88;;
59555;SDS011;45374;52.746;6.304;2023-02-28T03:21:48;17.80;;;8.00;;
59555;SDS011;45374;52.746;6.304;2023-02-28T03:24:24;16.83;;;8.40;;
59555;SDS011;45374;52.746;6.304;2023-02-28T03:26:54;18.55;;;8.55;;
59555;SDS011;45374;52.746;6.304;2023-02-28T03:29:32;14.95;;;8.40;;
59555;SDS011;45374;52.746;6.304;2023-02-28T03:32:05;17.88;;;8.88;;
59555;SDS011;45374;52.746;6.304;2023-02-28T03:37:32;16.65;;;9.25;;
59555;SDS011;45374;52.746;6.304;2023-02-28T03:40:23;19.73;;;9.25;;
59555;SDS011;45374;52.746;6.304;2023-02-28T03:42:51;19.67;;;10.55;;
59555;SDS011;45374;52.746;6.304;2023-02-28T03:47:55;20.75;;;9.57;;
59555;SDS011;45374;52.746;6.304;2023-02-28T03:50:34;20.92;;;10.27;;
59555;SDS011;45374;52.746;6.304;2023-02-28T03:56:01;19.20;;;9.65;;
59555;SDS011;45374;52.746;6.304;2023-02-28T03:58:40;22.27;;;10.95;;
59555;SDS011;45374;52.746;6.304;2023-02-28T04:01:19;27.13;;;11.30;;
59555;SDS011;45374;52.746;6.304;2023-02-28T04:03:53;23.67;;;11.70;;
59555;SDS011;45374;52.746;6.304;2023-02-28T04:06:20;25.50;;;11.27;;
59555;SDS011;45374;52.746;6.304;2023-02-28T04:08:47;26.17;;;11.80;;
59555;SDS011;45374;52.746;6.304;2023-02-28T04:11:18;25.23;;;12.25;;
59555;SDS011;45374;52.746;6.304;2023-02-28T04:14:04;29.73;;;13.27;;
59555;SDS011;45374;52.746;6.304;2023-02-28T04:16:31;29.63;;;12.52;;
59555;SDS011;45374;52.746;6.304;2023-02-28T04:18:57;30.90;;;12.93;;
59555;SDS011;45374;52.746;6.304;2023-02-28T04:21:46;29.92;;;12.68;;
59555;SDS011;45374;52.746;6.304;2023-02-28T04:24:18;30.00;;;12.57;;
59555;SDS011;45374;52.746;6.304;2023-02-28T04:26:47;27.73;;;12.90;;
59555;SDS011;45374;52.746;6.304;2023-02-28T04:29:18;23.58;;;11.70;;
59555;SDS011;45374;52.746;6.304;2023-02-28T04:31:46;28.05;;;13.52;;
59555;SDS011;45374;52.746;6.304;2023-02-28T04:34:11;26.48;;;13.02;;
59555;SDS011;45374;52.746;6.304;2023-02-28T04:36:37;30.25;;;13.40;;
59555;SDS011;45374;52.746;6.304;2023-02-28T04:39:02;32.80;;;13.02;;
59555;SDS011;45374;52.746;6.304;2023-02-28T04:41:29;27.08;;;12.68;;
59555;SDS011;45374;52.746;6.304;2023-02-28T04:43:54;30.38;;;13.40;;
59555;SDS011;45374;52.746;6.304;2023-02-28T04:46:21;31.15;;;12.82;;
59555;SDS011;45374;52.746;6.304;2023-02-28T04:48:47;33.08;;;12.82;;
59555;SDS011;45374;52.746;6.304;2023-02-28T04:51:13;32.15;;;13.23;;
59555;SDS011;45374;52.746;6.304;2023-02-28T04:53:41;25.45;;;12.23;;
59555;SDS011;45374;52.746;6.304;2023-02-28T04:56:08;25.77;;;12.05;;
59555;SDS011;45374;52.746;6.304;2023-02-28T04:58:37;29.40;;;13.10;;
59555;SDS011;45374;52.746;6.304;2023-02-28T05:01:03;37.50;;;14.02;;
59555;SDS011;45374;52.746;6.304;2023-02-28T05:03:40;34.05;;;14.07;;
59555;SDS011;45374;52.746;6.304;2023-02-28T05:06:06;26.40;;;13.20;;
59555;SDS011;45374;52.746;6.304;2023-02-28T05:08:32;24.50;;;12.38;;
59555;SDS011;45374;52.746;6.304;2023-02-28T05:10:58;23.15;;;11.95;;
59555;SDS011;45374;52.746;6.304;2023-02-28T05:13:25;30.02;;;13.27;;
59555;SDS011;45374;52.746;6.304;2023-02-28T05:15:51;27.33;;;12.50;;
59555;SDS011;45374;52.746;6.304;2023-02-28T05:18:17;30.70;;;13.20;;
59555;SDS011;45374;52.746;6.304;2023-02-28T05:20:42;33.08;;;13.63;;
59555;SDS011;45374;52.746;6.304;2023-02-28T05:23:08;28.55;;;12.65;;
59555;SDS011;45374;52.746;6.304;2023-02-28T05:25:36;28.38;;;12.55;;
59555;SDS011;45374;52.746;6.304;2023-02-28T05:28:02;31.55;;;13.30;;
59555;SDS011;45374;52.746;6.304;2023-02-28T05:30:28;29.83;;;13.23;;
59555;SDS011;45374;52.746;6.304;2023-02-28T05:32:54;30.02;;;13.30;;
59555;SDS011;45374;52.746;6.304;2023-02-28T05:35:20;26.33;;;12.73;;
59555;SDS011;45374;52.746;6.304;2023-02-28T05:37:46;28.85;;;13.68;;
59555;SDS011;45374;52.746;6.304;2023-02-28T05:40:12;26.20;;;12.07;;
59555;SDS011;45374;52.746;6.304;2023-02-28T05:42:37;31.88;;;13.48;;
59555;SDS011;45374;52.746;6.304;2023-02-28T05:45:04;34.80;;;13.40;;
59555;SDS011;45374;52.746;6.304;2023-02-28T05:47:30;29.58;;;13.13;;
59555;SDS011;45374;52.746;6.304;2023-02-28T05:49:56;33.58;;;13.40;;
59555;SDS011;45374;52.746;6.304;2023-02-28T05:52:21;27.95;;;13.20;;
59555;SDS011;45374;52.746;6.304;2023-02-28T05:54:48;36.88;;;14.05;;
59555;SDS011;45374;52.746;6.304;2023-02-28T05:57:13;33.83;;;14.50;;
59555;SDS011;45374;52.746;6.304;2023-02-28T05:59:40;32.42;;;14.82;;
59555;SDS011;45374;52.746;6.304;2023-02-28T06:02:06;36.60;;;15.40;;
59555;SDS011;45374;52.746;6.304;2023-02-28T06:04:35;35.13;;;14.48;;
59555;SDS011;45374;52.746;6.304;2023-02-28T06:07:01;36.58;;;14.45;;
59555;SDS011;45374;52.746;6.304;2023-02-28T06:09:27;33.53;;;13.48;;
59555;SDS011;45374;52.746;6.304;2023-02-28T06:11:52;45.10;;;15.20;;
59555;SDS011;45374;52.746;6.304;2023-02-28T06:14:19;35.72;;;15.27;;
59555;SDS011;45374;52.746;6.304;2023-02-28T06:16:45;40.28;;;14.40;;
59555;SDS011;45374;52.746;6.304;2023-02-28T06:19:12;37.03;;;15.55;;
59555;SDS011;45374;52.746;6.304;2023-02-28T06:21:37;34.90;;;15.88;;
59555;SDS011;45374;52.746;6.304;2023-02-28T06:24:03;38.13;;;15.45;;
59555;SDS011;45374;52.746;6.304;2023-02-28T06:26:30;32.58;;;14.70;;
59555;SDS011;45374;52.746;6.304;2023-02-28T06:28:55;39.08;;;14.73;;
59555;SDS011;45374;52.746;6.304;2023-02-28T06:31:21;36.33;;;15.13;;
59555;SDS011;45374;52.746;6.304;2023-02-28T06:33:48;35.95;;;15.15;;
59555;SDS011;45374;52.746;6.304;2023-02-28T06:36:14;29.33;;;13.88;;
59555;SDS011;45374;52.746;6.304;2023-02-28T06:38:41;35.90;;;15.30;;
59555;SDS011;45374;52.746;6.304;2023-02-28T06:41:08;29.80;;;14.70;;
59555;SDS011;45374;52.746;6.304;2023-02-28T06:43:36;26.50;;;13.63;;
59555;SDS011;45374;52.746;6.304;2023-02-28T06:46:04;33.70;;;14.75;;
59555;SDS011;45374;52.746;6.304;2023-02-28T06:48:31;34.25;;;15.57;;
59555;SDS011;45374;52.746;6.304;2023-02-28T06:51:02;30.08;;;14.82;;
59555;SDS011;45374;52.746;6.304;2023-02-28T06:53:35;38.65;;;17.05;;
59555;SDS011;45374;52.746;6.304;2023-02-28T06:56:03;40.70;;;16.40;;
59555;SDS011;45374;52.746;6.304;2023-02-28T06:58:31;35.50;;;16.45;;
59555;SDS011;45374;52.746;6.304;2023-02-28T07:00:57;33.97;;;15.95;;
59555;SDS011;45374;52.746;6.304;2023-02-28T07:03:22;37.75;;;17.27;;
59555;SDS011;45374;52.746;6.304;2023-02-28T07:05:48;34.60;;;15.80;;
59555;SDS011;45374;52.746;6.304;2023-02-28T07:08:14;34.88;;;15.05;;
59555;SDS011;45374;52.746;6.304;2023-02-28T07:10:39;37.42;;;16.38;;
59555;SDS011;45374;52.746;6.304;2023-02-28T07:13:06;34.95;;;15.93;;
59555;SDS011;45374;52.746;6.304;2023-02-28T07:15:32;32.03;;;16.10;;
59555;SDS011;45374;52.746;6.304;2023-02-28T07:17:58;32.72;;;15.82;;
59555;SDS011;45374;52.746;6.304;2023-02-28T07:20:23;37.10;;;15.90;;
59555;SDS011;45374;52.746;6.304;2023-02-28T07:22:49;38.88;;;17.25;;
59555;SDS011;45374;52.746;6.304;2023-02-28T07:25:24;41.67;;;17.20;;
59555;SDS011;45374;52.746;6.304;2023-02-28T07:27:51;35.63;;;16.15;;
59555;SDS011;45374;52.746;6.304;2023-02-28T07:30:17;32.45;;;16.60;;
59555;SDS011;45374;52.746;6.304;2023-02-28T07:32:43;35.40;;;16.20;;
59555;SDS011;45374;52.746;6.304;2023-02-28T07:35:09;37.55;;;16.67;;
59555;SDS011;45374;52.746;6.304;2023-02-28T07:37:34;34.92;;;16.77;;
59555;SDS011;45374;52.746;6.304;2023-02-28T07:40:02;29.35;;;15.85;;
59555;SDS011;45374;52.746;6.304;2023-02-28T07:42:33;32.33;;;16.23;;
59555;SDS011;45374;52.746;6.304;2023-02-28T07:44:59;34.53;;;15.82;;
59555;SDS011;45374;52.746;6.304;2023-02-28T07:47:25;31.40;;;15.68;;
59555;SDS011;45374;52.746;6.304;2023-02-28T07:49:51;33.00;;;15.95;;
59555;SDS011;45374;52.746;6.304;2023-02-28T07:52:17;27.75;;;14.65;;
59555;SDS011;45374;52.746;6.304;2023-02-28T07:54:42;25.50;;;14.40;;
59555;SDS011;45374;52.746;6.304;2023-02-28T07:57:08;25.00;;;14.32;;
59555;SDS011;45374;52.746;6.304;2023-02-28T07:59:33;28.95;;;15.68;;
59555;SDS011;45374;52.746;6.304;2023-02-28T08:01:59;32.28;;;15.13;;
59555;SDS011;45374;52.746;6.304;2023-02-28T08:04:25;25.40;;;14.63;;
59555;SDS011;45374;52.746;6.304;2023-02-28T08:06:50;27.58;;;14.52;;
59555;SDS011;45374;52.746;6.304;2023-02-28T08:09:18;27.98;;;14.77;;
59555;SDS011;45374;52.746;6.304;2023-02-28T08:11:44;27.27;;;14.63;;
59555;SDS011;45374;52.746;6.304;2023-02-28T08:14:09;27.05;;;14.40;;
59555;SDS011;45374;52.746;6.304;2023-02-28T08:16:35;25.17;;;13.48;;
59555;SDS011;45374;52.746;6.304;2023-02-28T08:19:00;24.65;;;13.73;;
59555;SDS011;45374;52.746;6.304;2023-02-28T08:21:26;24.02;;;13.35;;
59555;SDS011;45374;52.746;6.304;2023-02-28T08:23:51;25.33;;;13.68;;
59555;SDS011;45374;52.746;6.304;2023-02-28T08:26:17;25.50;;;13.23;;
59555;SDS011;45374;52.746;6.304;2023-02-28T08:28:43;18.95;;;11.38;;
59555;SDS011;45374;52.746;6.304;2023-02-28T08:31:13;17.60;;;11.38;;
59555;SDS011;45374;52.746;6.304;2023-02-28T08:33:40;17.55;;;10.30;;
59555;SDS011;45374;52.746;6.304;2023-02-28T08:36:06;19.55;;;11.27;;
59555;SDS011;45374;52.746;6.304;2023-02-28T08:38:33;20.95;;;11.85;;
59555;SDS011;45374;52.746;6.304;2023-02-28T08:41:00;18.65;;;10.68;;
59555;SDS011;45374;52.746;6.304;2023-02-28T08:43:28;21.38;;;11.15;;
59555;SDS011;45374;52.746;6.304;2023-02-28T08:45:57;17.75;;;10.82;;
59555;SDS011;45374;52.746;6.304;2023-02-28T08:48:23;16.85;;;10.45;;
59555;SDS011;45374;52.746;6.304;2023-02-28T08:50:57;21.88;;;10.77;;
59555;SDS011;45374;52.746;6.304;2023-02-28T08:53:34;19.02;;;12.27;;
59555;SDS011;45374;52.746;6.304;2023-02-28T08:56:09;18.02;;;11.07;;
59555;SDS011;45374;52.746;6.304;2023-02-28T08:58:36;19.63;;;11.33;;
59555;SDS011;45374;52.746;6.304;2023-02-28T09:01:22;20.73;;;11.98;;
59555;SDS011;45374;52.746;6.304;2023-02-28T09:03:52;19.05;;;11.68;;
59555;SDS011;45374;52.746;6.304;2023-02-28T09:06:20;23.35;;;12.07;;
59555;SDS011;45374;52.746;6.304;2023-02-28T09:08:47;19.08;;;11.57;;
59555;SDS011;45374;52.746;6.304;2023-02-28T09:11:13;18.48;;;11.48;;
59555;SDS011;45374;52.746;6.304;2023-02-28T09:13:39;21.23;;;12.77;;
59555;SDS011;45374;52.746;6.304;2023-02-28T09:16:06;18.52;;;11.60;;
59555;SDS011;45374;52.746;6.304;2023-02-28T09:18:34;18.08;;;11.20;;
59555;SDS011;45374;52.746;6.304;2023-02-28T09:21:02;18.38;;;11.70;;
59555;SDS011;45374;52.746;6.304;2023-02-28T09:23:29;21.15;;;11.57;;
59555;SDS011;45374;52.746;6.304;2023-02-28T09:25:55;17.35;;;10.48;;
59555;SDS011;45374;52.746;6.304;2023-02-28T09:28:21;21.35;;;10.95;;
59555;SDS011;45374;52.746;6.304;2023-02-28T09:30:48;17.05;;;9.38;;
59555;SDS011;45374;52.746;6.304;2023-02-28T09:33:15;16.00;;;10.27;;
59555;SDS011;45374;52.746;6.304;2023-02-28T09:35:42;18.42;;;10.30;;
59555;SDS011;45374;52.746;6.304;2023-02-28T09:38:08;12.68;;;7.95;;
59555;SDS011;45374;52.746;6.304;2023-02-28T09:40:36;12.52;;;7.25;;
59555;SDS011;45374;52.746;6.304;2023-02-28T09:43:04;10.85;;;7.35;;
59555;SDS011;45374;52.746;6.304;2023-02-28T09:45:35;11.20;;;7.57;;
59555;SDS011;45374;52.746;6.304;2023-02-28T09:48:14;11.55;;;7.63;;
59555;SDS011;45374;52.746;6.304;2023-02-28T09:50:51;12.32;;;7.32;;
59555;SDS011;45374;52.746;6.304;2023-02-28T09:53:27;11.68;;;6.68;;
59555;SDS011;45374;52.746;6.304;2023-02-28T09:56:03;12.18;;;7.40;;
59555;SDS011;45374;52.746;6.304;2023-02-28T09:58:41;10.90;;;7.13;;
59555;SDS011;45374;52.746;6.304;2023-02-28T10:04:08;9.77;;;6.68;;
59555;SDS011;45374;52.746;6.304;2023-02-28T10:06:41;10.25;;;6.57;;
59555;SDS011;45374;52.746;6.304;2023-02-28T10:09:13;11.07;;;7.20;;
59555;SDS011;45374;52.746;6.304;2023-02-28T10:11:45;13.13;;;7.07;;
59555;SDS011;45374;52.746;6.304;2023-02-28T10:14:16;10.15;;;6.60;;
59555;SDS011;45374;52.746;6.304;2023-02-28T10:16:58;9.82;;;6.60;;
59555;SDS011;45374;52.746;6.304;2023-02-28T10:19:30;9.77;;;6.25;;
59555;SDS011;45374;52.746;6.304;2023-02-28T10:22:14;10.73;;;6.70;;
59555;SDS011;45374;52.746;6.304;2023-02-28T10:24:48;9.20;;;6.32;;
59555;SDS011;45374;52.746;6.304;2023-02-28T10:27:39;11.93;;;7.00;;
59555;SDS011;45374;52.746;6.304;2023-02-28T10:30:05;11.38;;;6.47;;
59555;SDS011;45374;52.746;6.304;2023-02-28T10:32:32;10.13;;;5.60;;
59555;SDS011;45374;52.746;6.304;2023-02-28T10:37:37;8.65;;;5.00;;
59555;SDS011;45374;52.746;6.304;2023-02-28T10:40:04;7.13;;;4.68;;
59555;SDS011;45374;52.746;6.304;2023-02-28T10:42:32;6.47;;;4.20;;
59555;SDS011;45374;52.746;6.304;2023-02-28T10:45:14;6.47;;;4.43;;
59555;SDS011;45374;52.746;6.304;2023-02-28T10:47:48;5.45;;;3.60;;
59555;SDS011;45374;52.746;6.304;2023-02-28T10:50:26;7.20;;;4.32;;
59555;SDS011;45374;52.746;6.304;2023-02-28T10:52:53;5.75;;;3.83;;
59555;SDS011;45374;52.746;6.304;2023-02-28T10:57:47;5.65;;;3.72;;
59555;SDS011;45374;52.746;6.304;2023-02-28T11:00:20;5.20;;;3.60;;
59555;SDS011;45374;52.746;6.304;2023-02-28T11:02:56;4.80;;;3.47;;
59555;SDS011;45374;52.746;6.304;2023-02-28T11:05:29;6.20;;;3.60;;
59555;SDS011;45374;52.746;6.304;2023-02-28T11:08:06;4.25;;;3.70;;
59555;SDS011;45374;52.746;6.304;2023-02-28T11:10:38;7.22;;;3.25;;
59555;SDS011;45374;52.746;6.304;2023-02-28T11:13:04;5.10;;;3.90;;
59555;SDS011;45374;52.746;6.304;2023-02-28T11:15:31;5.68;;;3.35;;
59555;SDS011;45374;52.746;6.304;2023-02-28T11:20:52;4.70;;;3.38;;
59555;SDS011;45374;52.746;6.304;2023-02-28T11:23:22;8.68;;;3.63;;
59555;SDS011;45374;52.746;6.304;2023-02-28T11:25:52;4.40;;;3.15;;
59555;SDS011;45374;52.746;6.304;2023-02-28T11:28:29;4.88;;;3.60;;
59555;SDS011;45374;52.746;6.304;2023-02-28T11:31:00;5.33;;;3.33;;
59555;SDS011;45374;52.746;6.304;2023-02-28T11:36:20;5.03;;;3.38;;
59555;SDS011;45374;52.746;6.304;2023-02-28T11:38:51;5.65;;;3.28;;
59555;SDS011;45374;52.746;6.304;2023-02-28T11:49:22;5.00;;;3.42;;
59555;SDS011;45374;52.746;6.304;2023-02-28T11:51:59;5.43;;;3.33;;
59555;SDS011;45374;52.746;6.304;2023-02-28T11:54:56;5.85;;;3.40;;
59555;SDS011;45374;52.746;6.304;2023-02-28T11:57:36;4.97;;;3.70;;
59555;SDS011;45374;52.746;6.304;2023-02-28T12:00:32;6.82;;;3.75;;
59555;SDS011;45374;52.746;6.304;2023-02-28T12:05:49;5.60;;;3.85;;
59555;SDS011;45374;52.746;6.304;2023-02-28T12:08:27;6.35;;;3.60;;
59555;SDS011;45374;52.746;6.304;2023-02-28T12:16:29;5.55;;;3.70;;
59555;SDS011;45374;52.746;6.304;2023-02-28T12:19:06;7.03;;;4.30;;
59555;SDS011;45374;52.746;6.304;2023-02-28T12:24:31;4.28;;;3.53;;
59555;SDS011;45374;52.746;6.304;2023-02-28T12:27:10;4.95;;;3.50;;
59555;SDS011;45374;52.746;6.304;2023-02-28T12:32:27;5.43;;;2.80;;
59555;SDS011;45374;52.746;6.304;2023-02-28T12:34:57;4.32;;;2.80;;
59555;SDS011;45374;52.746;6.304;2023-02-28T12:37:29;3.85;;;2.60;;
59555;SDS011;45374;52.746;6.304;2023-02-28T12:40:05;4.03;;;2.70;;
59555;SDS011;45374;52.746;6.304;2023-02-28T12:42:39;3.35;;;2.60;;
59555;SDS011;45374;52.746;6.304;2023-02-28T12:45:12;3.47;;;2.90;;
59555;SDS011;45374;52.746;6.304;2023-02-28T12:47:44;3.78;;;2.80;;
59555;SDS011;45374;52.746;6.304;2023-02-28T12:50:14;3.42;;;2.88;;
59555;SDS011;45374;52.746;6.304;2023-02-28T12:52:59;4.22;;;3.05;;
59555;SDS011;45374;52.746;6.304;2023-02-28T13:09:37;4.65;;;3.17;;
59555;SDS011;45374;52.746;6.304;2023-02-28T13:12:14;6.05;;;3.20;;
59555;SDS011;45374;52.746;6.304;2023-02-28T13:14:41;3.60;;;2.95;;
59555;SDS011;45374;52.746;6.304;2023-02-28T13:22:21;5.57;;;3.33;;
59555;SDS011;45374;52.746;6.304;2023-02-28T13:25:49;3.97;;;3.10;;
59555;SDS011;45374;52.746;6.304;2023-02-28T13:28:08;4.53;;;3.17;;
59555;SDS011;45374;52.746;6.304;2023-02-28T13:33:30;5.13;;;3.40;;
59555;SDS011;45374;52.746;6.304;2023-02-28T13:38:45;4.00;;;2.92;;
59555;SDS011;45374;52.746;6.304;2023-02-28T13:49:25;4.90;;;3.35;;
59555;SDS011;45374;52.746;6.304;2023-02-28T13:57:11;5.68;;;3.58;;
59555;SDS011;45374;52.746;6.304;2023-02-28T14:05:27;4.78;;;3.40;;
59555;SDS011;45374;52.746;6.304;2023-02-28T14:07:56;6.82;;;3.70;;
59555;SDS011;45374;52.746;6.304;2023-02-28T14:10:24;6.85;;;3.65;;
59555;SDS011;45374;52.746;6.304;2023-02-28T14:21:14;5.28;;;3.47;;
59555;SDS011;45374;52.746;6.304;2023-02-28T14:26:51;5.80;;;3.45;;
59555;SDS011;45374;52.746;6.304;2023-02-28T14:32:41;6.75;;;3.40;;
59555;SDS011;45374;52.746;6.304;2023-02-28T14:38:05;5.13;;;3.30;;
59555;SDS011;45374;52.746;6.304;2023-02-28T14:40:38;4.78;;;3.90;;
59555;SDS011;45374;52.746;6.304;2023-02-28T14:43:06;5.40;;;3.80;;
59555;SDS011;45374;52.746;6.304;2023-02-28T14:45:48;5.03;;;3.53;;
59555;SDS011;45374;52.746;6.304;2023-02-28T14:48:16;4.67;;;3.50;;
59555;SDS011;45374;52.746;6.304;2023-02-28T14:50:47;4.50;;;3.33;;
59555;SDS011;45374;52.746;6.304;2023-02-28T14:53:17;7.38;;;3.67;;
59555;SDS011;45374;52.746;6.304;2023-02-28T14:55:45;4.80;;;3.42;;
59555;SDS011;45374;52.746;6.304;2023-02-28T14:58:21;5.63;;;3.85;;
59555;SDS011;45374;52.746;6.304;2023-02-28T15:00:52;4.43;;;3.47;;
59555;SDS011;45374;52.746;6.304;2023-02-28T15:03:21;5.90;;;4.10;;
59555;SDS011;45374;52.746;6.304;2023-02-28T15:05:52;4.88;;;3.60;;
59555;SDS011;45374;52.746;6.304;2023-02-28T15:08:23;4.68;;;4.05;;
59555;SDS011;45374;52.746;6.304;2023-02-28T15:10:59;6.15;;;4.07;;
59555;SDS011;45374;52.746;6.304;2023-02-28T15:16:03;7.03;;;3.70;;
59555;SDS011;45374;52.746;6.304;2023-02-28T15:23:44;5.47;;;4.10;;
59555;SDS011;45374;52.746;6.304;2023-02-28T15:26:14;6.20;;;3.95;;
59555;SDS011;45374;52.746;6.304;2023-02-28T15:28:42;5.65;;;4.10;;
59555;SDS011;45374;52.746;6.304;2023-02-28T15:31:26;5.53;;;4.63;;
59555;SDS011;45374;52.746;6.304;2023-02-28T15:34:04;5.93;;;4.22;;
59555;SDS011;45374;52.746;6.304;2023-02-28T15:36:31;6.10;;;4.38;;
59555;SDS011;45374;52.746;6.304;2023-02-28T15:39:02;5.45;;;4.10;;
59555;SDS011;45374;52.746;6.304;2023-02-28T15:41:43;6.90;;;4.30;;
59555;SDS011;45374;52.746;6.304;2023-02-28T15:47:05;6.25;;;4.63;;
59555;SDS011;45374;52.746;6.304;2023-02-28T15:49:40;6.10;;;3.95;;
59555;SDS011;45374;52.746;6.304;2023-02-28T15:52:17;8.95;;;5.45;;
59555;SDS011;45374;52.746;6.304;2023-02-28T15:54:47;6.93;;;4.55;;
59555;SDS011;45374;52.746;6.304;2023-02-28T15:57:15;6.72;;;4.82;;
59555;SDS011;45374;52.746;6.304;2023-02-28T15:59:49;8.52;;;5.22;;
59555;SDS011;45374;52.746;6.304;2023-02-28T16:02:32;7.25;;;5.50;;
59555;SDS011;45374;52.746;6.304;2023-02-28T16:05:18;6.90;;;5.72;;
59555;SDS011;45374;52.746;6.304;2023-02-28T16:07:53;7.85;;;5.85;;
59555;SDS011;45374;52.746;6.304;2023-02-28T16:10:20;8.68;;;5.85;;
59555;SDS011;45374;52.746;6.304;2023-02-28T16:12:50;7.88;;;6.07;;
59555;SDS011;45374;52.746;6.304;2023-02-28T16:15:27;10.32;;;6.68;;
59555;SDS011;45374;52.746;6.304;2023-02-28T16:17:56;8.85;;;6.88;;
59555;SDS011;45374;52.746;6.304;2023-02-28T16:20:23;7.43;;;6.63;;
59555;SDS011;45374;52.746;6.304;2023-02-28T16:22:51;8.75;;;6.70;;
59555;SDS011;45374;52.746;6.304;2023-02-28T16:25:18;9.77;;;6.80;;
59555;SDS011;45374;52.746;6.304;2023-02-28T16:27:47;8.25;;;6.15;;
59555;SDS011;45374;52.746;6.304;2023-02-28T16:30:17;6.13;;;5.53;;
59555;SDS011;45374;52.746;6.304;2023-02-28T16:32:49;7.50;;;6.10;;
59555;SDS011;45374;52.746;6.304;2023-02-28T16:35:15;8.30;;;5.88;;
59555;SDS011;45374;52.746;6.304;2023-02-28T16:37:42;11.98;;;6.50;;
59555;SDS011;45374;52.746;6.304;2023-02-28T16:40:15;7.82;;;6.22;;
59555;SDS011;45374;52.746;6.304;2023-02-28T16:42:43;9.10;;;5.85;;
59555;SDS011;45374;52.746;6.304;2023-02-28T16:45:18;7.72;;;5.88;;
59555;SDS011;45374;52.746;6.304;2023-02-28T16:47:46;6.47;;;5.60;;
59555;SDS011;45374;52.746;6.304;2023-02-28T16:50:13;7.88;;;5.78;;
59555;SDS011;45374;52.746;6.304;2023-02-28T16:52:44;8.23;;;5.50;;
59555;SDS011;45374;52.746;6.304;2023-02-28T16:55:11;6.90;;;5.22;;
59555;SDS011;45374;52.746;6.304;2023-02-28T16:57:37;7.18;;;5.35;;
59555;SDS011;45374;52.746;6.304;2023-02-28T17:00:04;6.85;;;5.32;;
59555;SDS011;45374;52.746;6.304;2023-02-28T17:02:32;9.32;;;5.20;;
59555;SDS011;45374;52.746;6.304;2023-02-28T17:04:59;7.45;;;5.03;;
59555;SDS011;45374;52.746;6.304;2023-02-28T17:07:24;8.27;;;5.28;;
59555;SDS011;45374;52.746;6.304;2023-02-28T17:09:50;7.93;;;6.00;;
59555;SDS011;45374;52.746;6.304;2023-02-28T17:12:16;7.88;;;5.53;;